Time;durP1;ratioP1;P1;durP2;ratioP2;P2;SDS_P1;SDS_P2;PMS_P1;PMS_P2;Temp;Humidity;BMP_temperature;BMP_pressure;BME280_temperature;BME280_humidity;BME280_pressure;Samples;Min_cycle;Max_cycle;Signal;HPM_P1;HPM_P2
2019/05/11 00:00:38;;;;;;;7.8;6.9;;;;;;;;;;;;;
2019/05/11 00:03:03;;;;;;;7.2;6.6;;;;;;;;;;;;;
2019/05/11 00:05:28;;;;;;;7.4;6.7;;;;;;;;;;;;;
2019/05/11 00:07:53;;;;;;;7.1;6.5;;;;;;;;;;;;;
2019/05/11 00:10:18;;;;;;;8.2;6.9;;;;;;;;;;;;;
2019/05/11 00:12:44;;;;;;;6.6;6;;;;;;;;;;;;;
2019/05/11 00:15:09;;;;;;;7.3;6.4;;;;;;;;;;;;;
2019/05/11 00:17:34;;;;;;;7.3;6.5;;;;;;;;;;;;;
2019/05/11 00:19:59;;;;;;;6.9;6.3;;;;;;;;;;;;;
2019/05/11 00:22:24;;;;;;;7;6.3;;;;;;;;;;;;;
2019/05/11 00:24:52;;;;;;;6.9;6.3;;;;;;;;;;;;;
2019/05/11 00:27:18;;;;;;;7.2;6.6;;;;;;;;;;;;;
2019/05/11 00:29:43;;;;;;;7.6;6.9;;;;;;;;;;;;;
2019/05/11 00:32:08;;;;;;;7.2;6.5;;;;;;;;;;;;;
2019/05/11 00:34:34;;;;;;;7.2;6.5;;;;;;;;;;;;;
2019/05/11 00:36:59;;;;;;;6.8;6.2;;;;;;;;;;;;;
2019/05/11 00:39:24;;;;;;;7.2;6.5;;;;;;;;;;;;;
2019/05/11 00:41:49;;;;;;;7.2;6.5;;;;;;;;;;;;;
2019/05/11 00:44:14;;;;;;;7.7;6.9;;;;;;;;;;;;;
2019/05/11 00:46:39;;;;;;;7.4;6.8;;;;;;;;;;;;;
2019/05/11 00:49:05;;;;;;;7.5;6.8;;;;;;;;;;;;;
2019/05/11 00:51:30;;;;;;;7.1;6.4;;;;;;;;;;;;;
2019/05/11 00:53:55;;;;;;;7.1;6.5;;;;;;;;;;;;;
2019/05/11 00:56:20;;;;;;;7.7;6.9;;;;;;;;;;;;;
2019/05/11 00:58:45;;;;;;;7.9;7.2;;;;;;;;;;;;;
2019/05/11 01:01:10;;;;;;;8.4;7.6;;;;;;;;;;;;;
2019/05/11 01:03:35;;;;;;;8.6;7.8;;;;;;;;;;;;;
2019/05/11 01:06:01;;;;;;;9;8.1;;;;;;;;;;;;;
2019/05/11 01:08:26;;;;;;;9.8;8.2;;;;;;;;;;;;;
2019/05/11 01:10:51;;;;;;;13.9;10.6;;;;;;;;;;;;;
2019/05/11 01:13:16;;;;;;;15.3;10.6;;;;;;;;;;;;;
2019/05/11 01:15:41;;;;;;;11.7;10;;;;;;;;;;;;;
2019/05/11 01:18:06;;;;;;;14.3;10.8;;;;;;;;;;;;;
2019/05/11 01:20:31;;;;;;;13.4;10.1;;;;;;;;;;;;;
2019/05/11 01:22:57;;;;;;;10.4;9.3;;;;;;;;;;;;;
2019/05/11 01:25:22;;;;;;;11.3;9.2;;;;;;;;;;;;;
2019/05/11 01:27:47;;;;;;;8.6;7.7;;;;;;;;;;;;;
2019/05/11 01:30:13;;;;;;;7.8;7.1;;;;;;;;;;;;;
2019/05/11 01:32:38;;;;;;;7.2;6.5;;;;;;;;;;;;;
2019/05/11 01:35:03;;;;;;;6.4;5.8;;;;;;;;;;;;;
2019/05/11 01:37:28;;;;;;;6.9;6.2;;;;;;;;;;;;;
2019/05/11 01:39:53;;;;;;;5.6;5.1;;;;;;;;;;;;;
2019/05/11 01:42:18;;;;;;;5.7;5.2;;;;;;;;;;;;;
2019/05/11 01:44:43;;;;;;;5.7;5.1;;;;;;;;;;;;;
2019/05/11 01:47:09;;;;;;;6;5.4;;;;;;;;;;;;;
2019/05/11 01:49:34;;;;;;;5.7;5.2;;;;;;;;;;;;;
2019/05/11 01:51:59;;;;;;;5.7;5.2;;;;;;;;;;;;;
2019/05/11 01:54:24;;;;;;;4.6;4.2;;;;;;;;;;;;;
2019/05/11 01:56:51;;;;;;;5.3;4.6;;;;;;;;;;;;;
2019/05/11 01:59:16;;;;;;;5.8;5;;;;;;;;;;;;;
2019/05/11 02:01:42;;;;;;;4.6;4.1;;;;;;;;;;;;;
2019/05/11 02:04:07;;;;;;;5.8;5.3;;;;;;;;;;;;;
2019/05/11 02:06:32;;;;;;;7;6.3;;;;;;;;;;;;;
2019/05/11 02:08:57;;;;;;;7.6;6.9;;;;;;;;;;;;;
2019/05/11 02:11:22;;;;;;;8.8;7.9;;;;;;;;;;;;;
2019/05/11 02:13:47;;;;;;;10.8;8.6;;;;;;;;;;;;;
2019/05/11 02:16:13;;;;;;;6.7;6;;;;;;;;;;;;;
2019/05/11 02:18:38;;;;;;;9.1;7.3;;;;;;;;;;;;;
2019/05/11 02:21:03;;;;;;;10.3;8.4;;;;;;;;;;;;;
2019/05/11 02:23:29;;;;;;;12.1;9.8;;;;;;;;;;;;;
2019/05/11 02:25:54;;;;;;;9.7;8.6;;;;;;;;;;;;;
2019/05/11 02:28:19;;;;;;;8.5;7.5;;;;;;;;;;;;;
2019/05/11 02:30:44;;;;;;;7;6.4;;;;;;;;;;;;;
2019/05/11 02:33:09;;;;;;;5.7;5.2;;;;;;;;;;;;;
2019/05/11 02:35:34;;;;;;;6.3;5.7;;;;;;;;;;;;;
2019/05/11 02:37:59;;;;;;;7.1;5.9;;;;;;;;;;;;;
2019/05/11 02:40:25;;;;;;;7.3;6.6;;;;;;;;;;;;;
2019/05/11 02:42:50;;;;;;;7.4;6;;;;;;;;;;;;;
2019/05/11 02:45:15;;;;;;;6.8;4.9;;;;;;;;;;;;;
2019/05/11 02:47:41;;;;;;;5.3;4.8;;;;;;;;;;;;;
2019/05/11 02:50:06;;;;;;;5;4.6;;;;;;;;;;;;;
2019/05/11 02:52:31;;;;;;;5.3;4.9;;;;;;;;;;;;;
2019/05/11 02:54:56;;;;;;;4.6;4.2;;;;;;;;;;;;;
2019/05/11 02:57:21;;;;;;;4.4;4;;;;;;;;;;;;;
2019/05/11 02:59:46;;;;;;;5.2;4;;;;;;;;;;;;;
2019/05/11 03:02:11;;;;;;;4.1;3.7;;;;;;;;;;;;;
2019/05/11 03:04:36;;;;;;;4.3;3.8;;;;;;;;;;;;;
2019/05/11 03:07:02;;;;;;;3.9;3.5;;;;;;;;;;;;;
2019/05/11 03:09:27;;;;;;;3.9;3.5;;;;;;;;;;;;;
2019/05/11 03:11:52;;;;;;;3.7;3.4;;;;;;;;;;;;;
2019/05/11 03:14:17;;;;;;;4.1;3.3;;;;;;;;;;;;;
2019/05/11 03:16:42;;;;;;;3.2;3;;;;;;;;;;;;;
2019/05/11 03:19:07;;;;;;;3.9;3.6;;;;;;;;;;;;;
2019/05/11 03:21:32;;;;;;;4.2;3.8;;;;;;;;;;;;;
2019/05/11 03:23:57;;;;;;;3.4;3;;;;;;;;;;;;;
2019/05/11 03:26:22;;;;;;;4.8;3;;;;;;;;;;;;;
2019/05/11 03:28:47;;;;;;;4.2;3.6;;;;;;;;;;;;;
2019/05/11 03:31:13;;;;;;;3.2;2.9;;;;;;;;;;;;;
2019/05/11 03:33:38;;;;;;;3.7;3.4;;;;;;;;;;;;;
2019/05/11 03:36:03;;;;;;;6.4;4.6;;;;;;;;;;;;;
2019/05/11 03:38:28;;;;;;;4.8;4.1;;;;;;;;;;;;;
2019/05/11 03:40:53;;;;;;;4.2;3.8;;;;;;;;;;;;;
2019/05/11 03:43:18;;;;;;;4.5;4;;;;;;;;;;;;;
2019/05/11 03:45:43;;;;;;;4.7;4.3;;;;;;;;;;;;;
2019/05/11 03:48:08;;;;;;;4.3;3.9;;;;;;;;;;;;;
2019/05/11 03:50:33;;;;;;;4.1;3.8;;;;;;;;;;;;;
2019/05/11 03:52:59;;;;;;;4.9;4.4;;;;;;;;;;;;;
2019/05/11 03:55:24;;;;;;;4;3.6;;;;;;;;;;;;;
2019/05/11 03:57:49;;;;;;;4.5;3.7;;;;;;;;;;;;;
2019/05/11 04:02:28;;;;;;;4.5;4.1;;;;;;;10.89;90.36816;953.9376;;;;
2019/05/11 04:04:53;;;;;;;4.7;3.8;;;;;;;10.94;90.32129;954.1057;;;;
2019/05/11 04:07:19;;;;;;;4.5;4.1;;;;;;;10.93;90.31738;954.1294;;;;
2019/05/11 04:09:44;;;;;;;4.2;3.9;;;;;;;11.01;90.21973;954.2346;;;;
2019/05/11 04:12:09;;;;;;;4.3;3.9;;;;;;;11.06;89.45703;954.3033;;;;
2019/05/11 04:14:35;;;;;;;4.9;3.9;;;;;;;11.06;89.26074;954.3162;;;;
2019/05/11 04:17:00;;;;;;;4;3.6;;;;;;;11.09;89.21094;954.4046;;;;
2019/05/11 04:19:28;;;;;;;4.5;3.9;;;;;;;11.05;88.37402;954.3474;;;;
2019/05/11 04:21:53;;;;;;;4.6;3.7;;;;;;;11.12;88.99902;954.2883;;;;
2019/05/11 04:24:19;;;;;;;3.9;3.5;;;;;;;11.21;88.67188;954.1577;;;;
2019/05/11 04:26:44;;;;;;;4.3;3.9;;;;;;;11.14;89.04688;954.2608;;;;
2019/05/11 04:29:10;;;;;;;3.7;3.4;;;;;;;11.15;88.70313;954.1947;;;;
2019/05/11 04:31:35;;;;;;;3.3;3;;;;;;;11.17;89.07715;954.2358;;;;
2019/05/11 04:34:00;;;;;;;4.2;3.4;;;;;;;11.12;89.16016;954.2711;;;;
2019/05/11 04:36:29;;;;;;;4.2;3.8;;;;;;;11.04;89.98535;954.2095;;;;
2019/05/11 04:38:54;;;;;;;4;3.7;;;;;;;10.97;90.84766;954.207;;;;
2019/05/11 04:41:22;;;;;;;4.5;4;;;;;;;10.92;91.01855;954.1172;;;;
2019/05/11 04:43:47;;;;;;;4.3;3.9;;;;;;;10.91;91.5;954.1437;;;;
2019/05/11 04:46:14;;;;;;;4.7;3.6;;;;;;;10.95;91.24512;954.2356;;;;
2019/05/11 04:48:39;;;;;;;5;4.5;;;;;;;10.94;91.94531;954.3014;;;;
2019/05/11 04:51:04;;;;;;;3.8;3.4;;;;;;;11.02;90.5918;954.3071;;;;
2019/05/11 04:53:29;;;;;;;3.7;3.3;;;;;;;11.13;89.89941;954.3831;;;;
2019/05/11 04:55:55;;;;;;;3.6;3.3;;;;;;;11.14;90.57031;954.3692;;;;
2019/05/11 04:58:21;;;;;;;4.7;3.8;;;;;;;11.1;91.20605;954.2084;;;;
2019/05/11 05:00:46;;;;;;;5;4.1;;;;;;;11.04;91.73438;954.075;;;;
2019/05/11 05:03:12;;;;;;;5.7;4;;;;;;;11.03;92.00879;954.0625;;;;
2019/05/11 05:05:37;;;;;;;4.4;4;;;;;;;11.12;91.85547;954.0975;;;;
2019/05/11 05:08:02;;;;;;;3.8;3.4;;;;;;;11.13;91.70898;953.9917;;;;
2019/05/11 05:10:28;;;;;;;5.2;4.7;;;;;;;11.03;92.4375;954.0795;;;;
2019/05/11 05:12:53;;;;;;;4.7;4.2;;;;;;;11.04;92.56348;954.1228;;;;
2019/05/11 05:15:18;;;;;;;4.8;3.9;;;;;;;11.11;91.72656;954.0762;;;;
2019/05/11 05:17:44;;;;;;;5.6;3.6;;;;;;;11.19;91.79199;954.1161;;;;
2019/05/11 05:20:09;;;;;;;4.6;3.4;;;;;;;11.29;91.04004;954.1071;;;;
2019/05/11 05:22:36;;;;;;;4.8;4.1;;;;;;;11.12;92.31641;954.1105;;;;
2019/05/11 05:25:01;;;;;;;4.2;3.3;;;;;;;11.22;91.55469;954.144;;;;
2019/05/11 05:27:26;;;;;;;6.3;4.1;;;;;;;11.2;91.9668;954.1805;;;;
2019/05/11 05:29:52;;;;;;;5.9;4;;;;;;;11.31;91.41309;954.1398;;;;
2019/05/11 05:32:17;;;;;;;6.5;3.8;;;;;;;11.34;90.92285;954.2151;;;;
2019/05/11 05:34:42;;;;;;;8;3.9;;;;;;;11.35;90.75195;954.118;;;;
2019/05/11 05:37:07;;;;;;;5.2;4.3;;;;;;;11.27;92.18945;954.1255;;;;
2019/05/11 05:39:33;;;;;;;6.5;3.5;;;;;;;11.36;90.8457;954.0478;;;;
2019/05/11 05:41:58;;;;;;;4.2;3.3;;;;;;;11.41;91.17969;953.9733;;;;
2019/05/11 05:44:24;;;;;;;6.8;3.7;;;;;;;11.4;92.03125;953.8867;;;;
2019/05/11 05:46:49;;;;;;;6;2.9;;;;;;;11.5;89.81445;953.9942;;;;
2019/05/11 05:49:14;;;;;;;4.8;2.6;;;;;;;11.65;87.66504;954.0179;;;;
2019/05/11 05:51:40;;;;;;;5;3.1;;;;;;;11.59;90.13477;953.8674;;;;
2019/05/11 05:54:05;;;;;;;6.1;3;;;;;;;11.67;89.90723;953.8206;;;;
2019/05/11 05:56:30;;;;;;;3.9;2.7;;;;;;;11.71;89.06152;953.7122;;;;
2019/05/11 05:58:55;;;;;;;5.6;3.1;;;;;;;11.79;89.97754;953.6302;;;;
2019/05/11 06:01:21;;;;;;;4;2.6;;;;;;;11.96;87.41699;953.7126;;;;
2019/05/11 06:03:48;;;;;;;2.8;2.5;;;;;;;11.96;88.39844;953.7126;;;;
2019/05/11 06:06:13;;;;;;;3.6;2.4;;;;;;;11.95;88.38379;953.7225;;;;
2019/05/11 06:08:38;;;;;;;2.9;2.3;;;;;;;12.09;87.54785;953.7036;;;;
2019/05/11 06:11:04;;;;;;;5.7;2.6;;;;;;;11.96;88.51172;953.8131;;;;
2019/05/11 06:13:29;;;;;;;6.1;2.5;;;;;;;12;87.9668;953.8789;;;;
2019/05/11 06:15:54;;;;;;;3.7;2.2;;;;;;;11.97;87.07031;954.0036;;;;
2019/05/11 06:18:19;;;;;;;3.5;2.1;;;;;;;11.94;86.98438;954.0892;;;;
2019/05/11 06:20:45;;;;;;;3.8;1.8;;;;;;;11.92;86.66699;954.1397;;;;
2019/05/11 06:23:10;;;;;;;2.2;1.8;;;;;;;12.05;86.74219;954.2128;;;;
2019/05/11 06:25:35;;;;;;;6;1.8;;;;;;;12.05;86.16504;954.3043;;;;
2019/05/11 06:28:00;;;;;;;3.7;1.7;;;;;;;12.06;87.00977;954.3078;;;;
2019/05/11 06:30:25;;;;;;;2.3;1.5;;;;;;;12.04;86.6709;954.288;;;;
2019/05/11 06:32:51;;;;;;;2.4;1.6;;;;;;;12.06;87.34473;954.3209;;;;
2019/05/11 06:35:16;;;;;;;1.8;1.3;;;;;;;12.14;87.29004;954.3831;;;;
2019/05/11 06:37:41;;;;;;;2.3;1.2;;;;;;;12.1;86.9707;954.4435;;;;
2019/05/11 06:40:06;;;;;;;2.1;1.3;;;;;;;12.08;87.45215;954.4539;;;;
2019/05/11 06:42:31;;;;;;;1.8;1.2;;;;;;;12.13;86.69922;954.5098;;;;
2019/05/11 06:44:56;;;;;;;2.1;1.5;;;;;;;12.14;87.58008;954.4697;;;;
2019/05/11 06:47:21;;;;;;;3.6;1.5;;;;;;;12.09;88.42383;954.4534;;;;
2019/05/11 06:49:46;;;;;;;2.7;1.3;;;;;;;12.14;89.07031;954.5351;;;;
2019/05/11 06:52:11;;;;;;;2.6;1.4;;;;;;;12.14;88.35254;954.4918;;;;
2019/05/11 06:54:37;;;;;;;2.8;1.5;;;;;;;12.06;88.61328;954.4263;;;;
2019/05/11 06:57:02;;;;;;;3.6;1.7;;;;;;;11.99;87.71094;954.2496;;;;
2019/05/11 06:59:27;;;;;;;5.6;2.1;;;;;;;12;88.32324;954.3452;;;;
2019/05/11 07:01:52;;;;;;;3.3;1.8;;;;;;;12.06;88.46289;954.365;;;;
2019/05/11 07:04:19;;;;;;;3;1.9;;;;;;;12.02;88.76758;954.1907;;;;
2019/05/11 07:06:44;;;;;;;2.6;1.6;;;;;;;11.96;87.73828;954.2181;;;;
2019/05/11 07:09:09;;;;;;;2.7;1.2;;;;;;;11.99;88.66992;954.233;;;;
2019/05/11 07:11:34;;;;;;;2.9;1.4;;;;;;;12.01;88.25781;954.1475;;;;
2019/05/11 07:14:00;;;;;;;3.9;1.4;;;;;;;12.05;89.7334;954.1998;;;;
2019/05/11 07:16:25;;;;;;;4.4;1.5;;;;;;;12.04;90.46875;954.2407;;;;
2019/05/11 07:18:50;;;;;;;2.9;1.5;;;;;;;12.1;89.43066;954.2556;;;;
2019/05/11 07:21:15;;;;;;;3;1.4;;;;;;;12.07;89.20605;954.4074;;;;
2019/05/11 07:23:40;;;;;;;1.8;1.3;;;;;;;12.13;87.7041;954.3276;;;;
2019/05/11 07:26:05;;;;;;;3.1;1.5;;;;;;;;;;;;;
2019/05/11 07:28:31;;;;;;;2.4;1.4;;;;;;;;;;;;;
2019/05/11 07:30:56;;;;;;;2.1;1.2;;;;;;;;;;;;;
2019/05/11 07:33:21;;;;;;;2.7;1.2;;;;;;;;;;;;;
2019/05/11 07:35:46;;;;;;;4.3;1.4;;;;;;;;;;;;;
2019/05/11 07:38:12;;;;;;;2;1.4;;;;;;;;;;;;;
2019/05/11 07:40:37;;;;;;;2.5;1.4;;;;;;;;;;;;;
2019/05/11 07:43:02;;;;;;;3.4;1.4;;;;;;;;;;;;;
2019/05/11 07:45:27;;;;;;;3.2;1.2;;;;;;;;;;;;;
2019/05/11 07:47:52;;;;;;;2;1.2;;;;;;;;;;;;;
2019/05/11 07:50:18;;;;;;;2.1;1.4;;;;;;;;;;;;;
2019/05/11 07:52:43;;;;;;;4.3;1.5;;;;;;;;;;;;;
2019/05/11 07:55:09;;;;;;;2.1;1.3;;;;;;;;;;;;;
2019/05/11 07:57:34;;;;;;;1.9;1.2;;;;;;;;;;;;;
2019/05/11 07:59:59;;;;;;;2.9;1.6;;;;;;;;;;;;;
2019/05/11 08:02:24;;;;;;;3.1;1.4;;;;;;;;;;;;;
2019/05/11 08:04:49;;;;;;;2.7;1.5;;;;;;;;;;;;;
2019/05/11 08:07:14;;;;;;;3.7;1.6;;;;;;;;;;;;;
2019/05/11 08:09:39;;;;;;;2.1;1.3;;;;;;;;;;;;;
2019/05/11 08:12:05;;;;;;;2.1;1.3;;;;;;;;;;;;;
2019/05/11 08:14:30;;;;;;;2.1;1.4;;;;;;;;;;;;;
2019/05/11 08:16:55;;;;;;;2.6;1.6;;;;;;;;;;;;;
2019/05/11 08:19:20;;;;;;;3.1;1.4;;;;;;;;;;;;;
2019/05/11 08:21:45;;;;;;;2.4;1.4;;;;;;;;;;;;;
2019/05/11 08:24:10;;;;;;;2.7;1.4;;;;;;;;;;;;;
2019/05/11 08:26:35;;;;;;;1.9;1.4;;;;;;;;;;;;;
2019/05/11 08:29:02;;;;;;;2.2;1.2;;;;;;;;;;;;;
2019/05/11 08:31:27;;;;;;;2.3;1.3;;;;;;;;;;;;;
2019/05/11 08:33:52;;;;;;;2.9;1.4;;;;;;;;;;;;;
2019/05/11 08:36:17;;;;;;;2.9;1.5;;;;;;;;;;;;;
2019/05/11 08:38:42;;;;;;;3.3;1.7;;;;;;;;;;;;;
2019/05/11 08:41:07;;;;;;;3.4;1.5;;;;;;;;;;;;;
2019/05/11 08:43:32;;;;;;;3;1.3;;;;;;;;;;;;;
2019/05/11 08:45:58;;;;;;;3.5;1.7;;;;;;;;;;;;;
2019/05/11 08:48:23;;;;;;;3.1;1.5;;;;;;;;;;;;;
2019/05/11 08:50:48;;;;;;;1.8;1.3;;;;;;;;;;;;;
2019/05/11 08:53:13;;;;;;;3.5;1.7;;;;;;;;;;;;;
2019/05/11 08:55:38;;;;;;;2.1;1.3;;;;;;;;;;;;;
2019/05/11 08:58:03;;;;;;;2.7;1.6;;;;;;;;;;;;;
2019/05/11 09:00:28;;;;;;;3.6;1.5;;;;;;;;;;;;;
2019/05/11 09:02:53;;;;;;;3.1;1.5;;;;;;;;;;;;;
2019/05/11 09:05:18;;;;;;;1.9;1.3;;;;;;;;;;;;;
2019/05/11 09:07:43;;;;;;;4.4;1.6;;;;;;;;;;;;;
2019/05/11 09:10:08;;;;;;;2.8;1.5;;;;;;;;;;;;;
2019/05/11 09:12:34;;;;;;;1.9;1.4;;;;;;;;;;;;;
2019/05/11 09:14:59;;;;;;;2.8;1.4;;;;;;;;;;;;;
2019/05/11 09:17:24;;;;;;;3.3;1.7;;;;;;;;;;;;;
2019/05/11 09:19:49;;;;;;;3.1;1.6;;;;;;;;;;;;;
2019/05/11 09:22:14;;;;;;;3.5;1.9;;;;;;;;;;;;;
2019/05/11 09:24:39;;;;;;;3.3;1.5;;;;;;;;;;;;;
2019/05/11 09:27:04;;;;;;;2.6;1.4;;;;;;;;;;;;;
2019/05/11 09:29:29;;;;;;;4.2;1.6;;;;;;;;;;;;;
2019/05/11 09:31:55;;;;;;;3.6;1.5;;;;;;;;;;;;;
2019/05/11 09:34:20;;;;;;;2.5;1.3;;;;;;;;;;;;;
2019/05/11 09:36:46;;;;;;;3.2;1.3;;;;;;;;;;;;;
2019/05/11 09:39:11;;;;;;;4.2;1.3;;;;;;;;;;;;;
2019/05/11 09:41:36;;;;;;;3;1.3;;;;;;;;;;;;;
2019/05/11 09:44:02;;;;;;;2.2;1.4;;;;;;;;;;;;;
2019/05/11 09:46:27;;;;;;;3.1;1.3;;;;;;;;;;;;;
2019/05/11 09:48:52;;;;;;;2.3;1.3;;;;;;;;;;;;;
2019/05/11 09:51:17;;;;;;;2.6;1.5;;;;;;;;;;;;;
2019/05/11 09:53:42;;;;;;;2.4;1.2;;;;;;;;;;;;;
2019/05/11 09:56:07;;;;;;;3.2;1.3;;;;;;;;;;;;;
2019/05/11 09:58:33;;;;;;;2.3;1.4;;;;;;;;;;;;;
2019/05/11 10:00:58;;;;;;;2.8;1.3;;;;;;;;;;;;;
2019/05/11 10:03:23;;;;;;;3.5;1.2;;;;;;;;;;;;;
2019/05/11 10:05:48;;;;;;;2.2;1.4;;;;;;;;;;;;;
2019/05/11 10:08:13;;;;;;;2.1;1.4;;;;;;;;;;;;;
2019/05/11 10:10:38;;;;;;;3.5;1.6;;;;;;;;;;;;;
2019/05/11 10:13:03;;;;;;;3.5;1.5;;;;;;;;;;;;;
2019/05/11 10:15:29;;;;;;;2.5;1.2;;;;;;;;;;;;;
2019/05/11 10:17:54;;;;;;;2.2;1.3;;;;;;;;;;;;;
2019/05/11 10:20:20;;;;;;;2.2;1.6;;;;;;;;;;;;;
2019/05/11 10:22:45;;;;;;;2.3;1.5;;;;;;;;;;;;;
2019/05/11 10:25:10;;;;;;;2.8;1.2;;;;;;;;;;;;;
2019/05/11 10:27:35;;;;;;;2.4;1.8;;;;;;;;;;;;;
2019/05/11 10:30:01;;;;;;;3.2;1.7;;;;;;;;;;;;;
2019/05/11 10:32:26;;;;;;;4.1;1.5;;;;;;;;;;;;;
2019/05/11 10:34:51;;;;;;;2.4;1.7;;;;;;;;;;;;;
2019/05/11 10:37:16;;;;;;;3;1.6;;;;;;;;;;;;;
2019/05/11 10:39:41;;;;;;;2;1.3;;;;;;;;;;;;;
2019/05/11 10:42:06;;;;;;;2.4;1.5;;;;;;;;;;;;;
2019/05/11 10:44:31;;;;;;;2.8;1.4;;;;;;;;;;;;;
2019/05/11 10:46:57;;;;;;;2.7;1.6;;;;;;;;;;;;;
2019/05/11 10:49:22;;;;;;;3.3;1.5;;;;;;;;;;;;;
2019/05/11 10:51:47;;;;;;;4;1.7;;;;;;;;;;;;;
2019/05/11 10:54:12;;;;;;;2.3;1.4;;;;;;;;;;;;;
2019/05/11 10:56:37;;;;;;;4;1.6;;;;;;;;;;;;;
2019/05/11 10:59:03;;;;;;;2.9;1.3;;;;;;;;;;;;;
2019/05/11 11:01:28;;;;;;;3.4;1.4;;;;;;;;;;;;;
2019/05/11 11:03:53;;;;;;;3.9;1.5;;;;;;;;;;;;;
2019/05/11 11:06:18;;;;;;;3.5;1.4;;;;;;;;;;;;;
2019/05/11 11:08:43;;;;;;;3.1;1.4;;;;;;;;;;;;;
2019/05/11 11:11:08;;;;;;;2.6;1.3;;;;;;;;;;;;;
2019/05/11 11:13:34;;;;;;;4;1.4;;;;;;;;;;;;;
2019/05/11 11:15:59;;;;;;;3.5;1.5;;;;;;;;;;;;;
2019/05/11 11:18:24;;;;;;;2.6;1.7;;;;;;;;;;;;;
2019/05/11 11:20:51;;;;;;;3.2;1.8;;;;;;;;;;;;;
2019/05/11 11:23:16;;;;;;;2.5;1.5;;;;;;;;;;;;;
2019/05/11 11:25:41;;;;;;;2.5;1.4;;;;;;;;;;;;;
2019/05/11 11:28:06;;;;;;;3;1.3;;;;;;;;;;;;;
2019/05/11 11:30:31;;;;;;;2.3;1.3;;;;;;;;;;;;;
2019/05/11 11:32:56;;;;;;;2.4;1.5;;;;;;;;;;;;;
2019/05/11 11:35:21;;;;;;;3.7;1.4;;;;;;;;;;;;;
2019/05/11 11:37:46;;;;;;;3;1.4;;;;;;;;;;;;;
2019/05/11 11:40:11;;;;;;;2.5;1.2;;;;;;;;;;;;;
2019/05/11 11:42:37;;;;;;;2.2;1.3;;;;;;;;;;;;;
2019/05/11 11:45:02;;;;;;;2.3;1.3;;;;;;;;;;;;;
2019/05/11 11:47:28;;;;;;;3;1.5;;;;;;;;;;;;;
2019/05/11 11:49:53;;;;;;;3.3;1.4;;;;;;;;;;;;;
2019/05/11 11:52:19;;;;;;;2.1;1.3;;;;;;;;;;;;;
2019/05/11 11:54:44;;;;;;;2.7;1.4;;;;;;;;;;;;;
2019/05/11 11:57:09;;;;;;;3;1.4;;;;;;;;;;;;;
2019/05/11 11:59:34;;;;;;;3.1;1.3;;;;;;;;;;;;;
2019/05/11 12:01:59;;;;;;;2.8;1.3;;;;;;;;;;;;;
2019/05/11 12:04:24;;;;;;;3.1;1.5;;;;;;;;;;;;;
2019/05/11 12:06:50;;;;;;;3.3;1.3;;;;;;;;;;;;;
2019/05/11 12:09:15;;;;;;;1.9;0.9;;;;;;;;;;;;;
2019/05/11 12:11:50;;;;;;;1.6;1;;;;;;;;;;;;;
2019/05/11 12:14:15;;;;;;;2;0.9;;;;;;;;;;;;;
2019/05/11 12:16:40;;;;;;;2.1;1;;;;;;;;;;;;;
2019/05/11 12:19:05;;;;;;;2.6;1;;;;;;;;;;;;;
2019/05/11 12:21:30;;;;;;;2.5;0.9;;;;;;;;;;;;;
2019/05/11 12:23:55;;;;;;;1.9;1.1;;;;;;;;;;;;;
2019/05/11 12:26:21;;;;;;;1.2;0.9;;;;;;;;;;;;;
2019/05/11 12:28:46;;;;;;;1.5;0.8;;;;;;;;;;;;;
2019/05/11 12:31:11;;;;;;;1.8;0.8;;;;;;;;;;;;;
2019/05/11 12:33:36;;;;;;;1.9;1;;;;;;;;;;;;;
2019/05/11 12:36:03;;;;;;;2.2;0.9;;;;;;;;;;;;;
2019/05/11 12:38:28;;;;;;;1.8;0.9;;;;;;;;;;;;;
2019/05/11 12:40:53;;;;;;;2;0.8;;;;;;;;;;;;;
2019/05/11 12:43:19;;;;;;;3.4;1;;;;;;;;;;;;;
2019/05/11 12:45:44;;;;;;;1.1;0.7;;;;;;;;;;;;;
2019/05/11 12:48:09;;;;;;;1.7;0.8;;;;;;;;;;;;;
2019/05/11 12:50:34;;;;;;;1.6;0.8;;;;;;;;;;;;;
2019/05/11 12:53:02;;;;;;;2.3;0.7;;;;;;;;;;;;;
2019/05/11 12:55:27;;;;;;;1.2;0.5;;;;;;;;;;;;;
2019/05/11 12:57:53;;;;;;;1.8;0.6;;;;;;;;;;;;;
2019/05/11 13:00:18;;;;;;;0.9;0.5;;;;;;;;;;;;;
2019/05/11 13:02:44;;;;;;;1.5;0.5;;;;;;;;;;;;;
2019/05/11 13:05:09;;;;;;;1.1;0.6;;;;;;;;;;;;;
2019/05/11 13:07:34;;;;;;;1;0.5;;;;;;;;;;;;;
2019/05/11 13:09:59;;;;;;;2;0.6;;;;;;;;;;;;;
2019/05/11 13:12:24;;;;;;;2.4;0.6;;;;;;;;;;;;;
2019/05/11 13:14:49;;;;;;;2.2;0.7;;;;;;;;;;;;;
2019/05/11 13:17:15;;;;;;;1.6;0.7;;;;;;;;;;;;;
2019/05/11 13:19:40;;;;;;;3.8;0.7;;;;;;;;;;;;;
2019/05/11 13:22:05;;;;;;;1;0.6;;;;;;;;;;;;;
2019/05/11 13:24:30;;;;;;;0.7;0.6;;;;;;;;;;;;;
2019/05/11 13:26:56;;;;;;;2.1;0.6;;;;;;;;;;;;;
2019/05/11 13:29:21;;;;;;;0.7;0.6;;;;;;;;;;;;;
2019/05/11 13:31:46;;;;;;;1.1;0.5;;;;;;;;;;;;;
2019/05/11 13:34:11;;;;;;;2.1;1.2;;;;;;;;;;;;;
2019/05/11 13:36:36;;;;;;;2.4;0.9;;;;;;;;;;;;;
2019/05/11 13:39:03;;;;;;;2.9;1;;;;;;;;;;;;;
2019/05/11 13:41:27;;;;;;;2.7;0.7;;;;;;;;;;;;;
2019/05/11 13:43:52;;;;;;;1.3;0.7;;;;;;;;;;;;;
2019/05/11 13:46:17;;;;;;;2.3;0.6;;;;;;;;;;;;;
2019/05/11 13:48:42;;;;;;;2.3;0.6;;;;;;;;;;;;;
2019/05/11 13:51:07;;;;;;;1.6;0.7;;;;;;;;;;;;;
2019/05/11 13:53:32;;;;;;;2.3;0.7;;;;;;;;;;;;;
2019/05/11 13:55:58;;;;;;;2.2;0.8;;;;;;;;;;;;;
2019/05/11 13:58:23;;;;;;;1.4;0.7;;;;;;;;;;;;;
2019/05/11 14:00:48;;;;;;;1.9;0.7;;;;;;;;;;;;;
2019/05/11 14:03:13;;;;;;;1.3;0.6;;;;;;;;;;;;;
2019/05/11 14:05:38;;;;;;;2.1;0.7;;;;;;;;;;;;;
2019/05/11 14:08:04;;;;;;;1.9;0.8;;;;;;;;;;;;;
2019/05/11 14:10:29;;;;;;;2.8;0.9;;;;;;;;;;;;;
2019/05/11 14:12:54;;;;;;;3.7;0.8;;;;;;;;;;;;;
2019/05/11 14:15:19;;;;;;;2.1;0.9;;;;;;;;;;;;;
2019/05/11 14:17:45;;;;;;;4.5;1.2;;;;;;;;;;;;;
2019/05/11 14:20:10;;;;;;;3.1;0.9;;;;;;;;;;;;;
2019/05/11 14:22:36;;;;;;;2.1;1;;;;;;;;;;;;;
2019/05/11 14:25:01;;;;;;;3.3;0.9;;;;;;;;;;;;;
2019/05/11 14:27:26;;;;;;;2;1;;;;;;;;;;;;;
2019/05/11 14:29:51;;;;;;;1.5;0.9;;;;;;;;;;;;;
2019/05/11 14:32:16;;;;;;;1.5;0.8;;;;;;;;;;;;;
2019/05/11 14:34:42;;;;;;;2.5;0.9;;;;;;;;;;;;;
2019/05/11 14:37:07;;;;;;;1.8;0.8;;;;;;;;;;;;;
2019/05/11 14:39:32;;;;;;;2.6;0.9;;;;;;;;;;;;;
2019/05/11 14:41:57;;;;;;;1.9;0.8;;;;;;;;;;;;;
2019/05/11 14:44:22;;;;;;;1.8;0.8;;;;;;;;;;;;;
2019/05/11 14:46:47;;;;;;;2.7;1.1;;;;;;;;;;;;;
2019/05/11 14:49:13;;;;;;;4.3;0.9;;;;;;;;;;;;;
2019/05/11 14:51:38;;;;;;;2;0.9;;;;;;;;;;;;;
2019/05/11 14:54:03;;;;;;;1.6;0.9;;;;;;;;;;;;;
2019/05/11 14:56:28;;;;;;;2.6;1;;;;;;;;;;;;;
2019/05/11 14:58:53;;;;;;;1.7;0.9;;;;;;;;;;;;;
2019/05/11 15:01:18;;;;;;;1;0.8;;;;;;;;;;;;;
2019/05/11 15:03:43;;;;;;;1.9;0.9;;;;;;;;;;;;;
2019/05/11 15:06:08;;;;;;;2.6;1.1;;;;;;;;;;;;;
2019/05/11 15:08:34;;;;;;;1.1;0.7;;;;;;;;;;;;;
2019/05/11 15:10:59;;;;;;;1.7;0.8;;;;;;;;;;;;;
2019/05/11 15:13:24;;;;;;;2;0.8;;;;;;;;;;;;;
2019/05/11 15:15:49;;;;;;;1.5;0.8;;;;;;;;;;;;;
2019/05/11 15:18:14;;;;;;;1.2;0.7;;;;;;;;;;;;;
2019/05/11 15:20:40;;;;;;;2.5;1;;;;;;;;;;;;;
2019/05/11 15:23:05;;;;;;;1.7;0.8;;;;;;;;;;;;;
2019/05/11 15:25:30;;;;;;;1.5;0.7;;;;;;;;;;;;;
2019/05/11 15:27:55;;;;;;;1;0.7;;;;;;;;;;;;;
2019/05/11 15:30:20;;;;;;;2.5;0.8;;;;;;;;;;;;;
2019/05/11 15:32:45;;;;;;;2;0.8;;;;;;;;;;;;;
2019/05/11 15:35:11;;;;;;;1.6;0.8;;;;;;;;;;;;;
2019/05/11 15:37:36;;;;;;;2.1;0.8;;;;;;;;;;;;;
2019/05/11 15:40:12;;;;;;;1.7;0.7;;;;;;;;;;;;;
2019/05/11 15:42:27;;;;;;;1.7;0.9;;;;;;;;;;;;;
2019/05/11 15:44:52;;;;;;;1.6;0.9;;;;;;;;;;;;;
2019/05/11 15:47:17;;;;;;;2.3;1.1;;;;;;;;;;;;;
2019/05/11 15:49:42;;;;;;;2.5;0.9;;;;;;;;;;;;;
2019/05/11 15:52:08;;;;;;;1.5;0.9;;;;;;;;;;;;;
2019/05/11 15:54:33;;;;;;;1.9;0.9;;;;;;;;;;;;;
2019/05/11 15:56:58;;;;;;;1.8;1;;;;;;;;;;;;;
2019/05/11 15:59:23;;;;;;;1.9;0.8;;;;;;;;;;;;;
2019/05/11 16:01:48;;;;;;;2.7;0.9;;;;;;;;;;;;;
2019/05/11 16:04:13;;;;;;;2.1;1.2;;;;;;;;;;;;;
2019/05/11 16:06:38;;;;;;;3;1.4;;;;;;;;;;;;;
2019/05/11 16:09:05;;;;;;;2.8;0.9;;;;;;;;;;;;;
2019/05/11 16:11:28;;;;;;;1.8;1;;;;;;;;;;;;;
2019/05/11 16:13:53;;;;;;;5.3;1.1;;;;;;;;;;;;;
2019/05/11 16:16:18;;;;;;;1.7;0.7;;;;;;;;;;;;;
2019/05/11 16:18:43;;;;;;;2;0.8;;;;;;;;;;;;;
2019/05/11 16:21:08;;;;;;;2.1;0.9;;;;;;;;;;;;;
2019/05/11 16:23:34;;;;;;;1.6;0.8;;;;;;;;;;;;;
2019/05/11 16:25:59;;;;;;;2.3;0.9;;;;;;;;;;;;;
2019/05/11 16:28:24;;;;;;;2.1;0.9;;;;;;;;;;;;;
2019/05/11 16:30:49;;;;;;;1.1;0.7;;;;;;;;;;;;;
2019/05/11 16:33:15;;;;;;;2.1;0.7;;;;;;;;;;;;;
2019/05/11 16:35:40;;;;;;;1.7;0.7;;;;;;;;;;;;;
2019/05/11 16:38:05;;;;;;;1.1;0.6;;;;;;;;;;;;;
2019/05/11 16:40:31;;;;;;;1;0.7;;;;;;;;;;;;;
2019/05/11 16:42:56;;;;;;;2.4;0.7;;;;;;;;;;;;;
2019/05/11 16:45:21;;;;;;;1.5;0.7;;;;;;;;;;;;;
2019/05/11 16:47:46;;;;;;;1.3;0.8;;;;;;;;;;;;;
2019/05/11 16:50:11;;;;;;;2;0.7;;;;;;;;;;;;;
2019/05/11 16:52:36;;;;;;;2.7;0.8;;;;;;;;;;;;;
2019/05/11 16:55:02;;;;;;;2;0.6;;;;;;;;;;;;;
2019/05/11 16:57:27;;;;;;;1;0.6;;;;;;;;;;;;;
2019/05/11 16:59:52;;;;;;;1.2;0.7;;;;;;;;;;;;;
2019/05/11 17:02:17;;;;;;;1.5;0.8;;;;;;;;;;;;;
2019/05/11 17:04:42;;;;;;;1.4;0.8;;;;;;;;;;;;;
2019/05/11 17:07:07;;;;;;;1;0.7;;;;;;;;;;;;;
2019/05/11 17:09:33;;;;;;;1;0.8;;;;;;;;;;;;;
2019/05/11 17:12:02;;;;;;;1.4;0.6;;;;;;;;;;;;;
2019/05/11 17:14:27;;;;;;;1.6;0.8;;;;;;;;;;;;;
2019/05/11 17:16:52;;;;;;;1.1;0.8;;;;;;;;;;;;;
2019/05/11 17:19:17;;;;;;;1.8;1;;;;;;;;;;;;;
2019/05/11 17:21:42;;;;;;;2.5;0.7;;;;;;;;;;;;;
2019/05/11 17:24:07;;;;;;;1.3;0.7;;;;;;;;;;;;;
2019/05/11 17:26:33;;;;;;;1.6;0.7;;;;;;;;;;;;;
2019/05/11 17:28:58;;;;;;;2.1;1.3;;;;;;;;;;;;;
2019/05/11 17:31:24;;;;;;;1.5;1;;;;;;;;;;;;;
2019/05/11 17:33:49;;;;;;;1.7;0.9;;;;;;;;;;;;;
2019/05/11 17:36:14;;;;;;;1.1;0.6;;;;;;;;;;;;;
2019/05/11 17:38:39;;;;;;;1.7;0.7;;;;;;;;;;;;;
2019/05/11 17:41:05;;;;;;;1;0.7;;;;;;;;;;;;;
2019/05/11 17:43:30;;;;;;;2;0.8;;;;;;;;;;;;;
2019/05/11 17:45:55;;;;;;;0.6;0.4;;;;;;;;;;;;;
2019/05/11 17:48:20;;;;;;;1.3;0.6;;;;;;;;;;;;;
2019/05/11 17:50:45;;;;;;;1.2;0.7;;;;;;;;;;;;;
2019/05/11 17:53:10;;;;;;;1.2;0.5;;;;;;;;;;;;;
2019/05/11 17:55:35;;;;;;;1.5;0.6;;;;;;;;;;;;;
2019/05/11 17:58:01;;;;;;;1.9;0.6;;;;;;;;;;;;;
2019/05/11 18:00:26;;;;;;;1;0.6;;;;;;;;;;;;;
2019/05/11 18:02:51;;;;;;;3.3;0.9;;;;;;;;;;;;;
2019/05/11 18:05:17;;;;;;;1.3;0.8;;;;;;;;;;;;;
2019/05/11 18:07:42;;;;;;;1.6;0.9;;;;;;;;;;;;;
2019/05/11 18:10:07;;;;;;;1.6;0.8;;;;;;;;;;;;;
2019/05/11 18:12:32;;;;;;;0.9;0.7;;;;;;;;;;;;;
2019/05/11 18:14:57;;;;;;;1.1;0.7;;;;;;;;;;;;;
2019/05/11 18:17:23;;;;;;;2.1;0.9;;;;;;;;;;;;;
2019/05/11 18:19:48;;;;;;;1.8;0.7;;;;;;;;;;;;;
2019/05/11 18:22:13;;;;;;;1.7;0.9;;;;;;;;;;;;;
2019/05/11 18:24:38;;;;;;;2.3;0.8;;;;;;;;;;;;;
2019/05/11 18:27:03;;;;;;;2.5;0.9;;;;;;;;;;;;;
2019/05/11 18:29:28;;;;;;;1.2;0.8;;;;;;;;;;;;;
2019/05/11 18:31:53;;;;;;;2.5;0.8;;;;;;;;;;;;;
2019/05/11 18:34:18;;;;;;;2.5;0.9;;;;;;;;;;;;;
2019/05/11 18:36:43;;;;;;;1.4;0.8;;;;;;;;;;;;;
2019/05/11 18:39:09;;;;;;;2;0.7;;;;;;;;;;;;;
2019/05/11 18:41:34;;;;;;;2.2;0.7;;;;;;;;;;;;;
2019/05/11 18:43:59;;;;;;;1.1;0.7;;;;;;;;;;;;;
2019/05/11 18:46:24;;;;;;;1.4;0.8;;;;;;;;;;;;;
2019/05/11 18:48:49;;;;;;;1.7;0.8;;;;;;;;;;;;;
2019/05/11 18:51:14;;;;;;;0.8;0.6;;;;;;;;;;;;;
2019/05/11 18:53:39;;;;;;;1.7;0.8;;;;;;;;;;;;;
2019/05/11 18:56:04;;;;;;;0.8;0.5;;;;;;;;;;;;;
2019/05/11 18:58:29;;;;;;;0.8;0.6;;;;;;;;;;;;;
2019/05/11 19:00:54;;;;;;;0.7;0.5;;;;;;;;;;;;;
2019/05/11 19:03:20;;;;;;;1.4;0.5;;;;;;;;;;;;;